createdAt,value
2023-01-13T00:04:50.422Z,8.44
2023-01-13T00:09:51.973Z,8.30
2023-01-13T00:14:53.582Z,8.08
2023-01-13T00:19:56.177Z,8.06
2023-01-13T00:25:01.528Z,7.98
2023-01-13T00:30:04.706Z,7.85
2023-01-13T00:35:06.522Z,7.77
2023-01-13T00:40:08.870Z,7.77
2023-01-13T00:45:10.985Z,7.64
2023-01-13T00:50:15.663Z,7.52
2023-01-13T00:55:17.108Z,7.43
2023-01-13T01:00:19.153Z,7.34
2023-01-13T01:05:20.629Z,7.44
2023-01-13T01:10:25.559Z,7.46
2023-01-13T01:15:29.361Z,7.45
2023-01-13T01:20:30.807Z,7.51
2023-01-13T01:25:33.267Z,7.53
2023-01-13T01:30:34.917Z,7.54
2023-01-13T01:35:40.074Z,7.47
2023-01-13T01:40:44.220Z,7.41
2023-01-13T01:45:45.662Z,7.41
2023-01-13T01:50:48.627Z,7.36
2023-01-13T01:55:51.403Z,7.36
2023-01-13T02:00:59.083Z,7.20
2023-01-13T02:06:00.682Z,7.18
2023-01-13T02:11:02.143Z,7.08
2023-01-13T02:16:14.049Z,7.06
2023-01-13T02:21:34.119Z,7.02
2023-01-13T02:26:54.255Z,6.94
2023-01-13T02:32:03.406Z,6.91
2023-01-13T02:37:13.545Z,6.97
2023-01-13T02:42:44.266Z,6.98
2023-01-13T02:47:50.245Z,6.89
2023-01-13T02:52:58.903Z,6.91
2023-01-13T02:58:04.767Z,6.87
2023-01-13T03:03:06.236Z,7.05
2023-01-13T03:08:39.532Z,7.01
2023-01-13T03:13:44.550Z,7.02
2023-01-13T03:18:56.976Z,7.06
2023-01-13T03:24:13.065Z,7.11
2023-01-13T03:29:25.901Z,7.01
2023-01-13T03:34:34.878Z,7.16
2023-01-13T03:39:43.274Z,7.18
2023-01-13T03:44:55.673Z,7.08
2023-01-13T03:50:10.552Z,7.16
2023-01-13T03:55:20.547Z,7.09
2023-01-13T04:00:26.741Z,7.07
2023-01-13T04:05:28.906Z,7.08
2023-01-13T04:10:38.277Z,6.90
2023-01-13T04:15:45.101Z,6.88
2023-01-13T04:20:49.118Z,6.86
2023-01-13T04:25:51.674Z,6.88
2023-01-13T04:30:53.283Z,6.78
2023-01-13T04:35:55.162Z,6.86
2023-01-13T04:40:56.608Z,6.84
2023-01-13T04:45:58.170Z,6.82
2023-01-13T04:50:59.626Z,6.79
2023-01-13T04:56:01.076Z,6.92
2023-01-13T05:01:02.483Z,6.86
2023-01-13T05:06:03.978Z,6.93
2023-01-13T05:11:25.557Z,6.83
2023-01-13T05:16:45.753Z,6.89
2023-01-13T05:22:05.573Z,6.81
2023-01-13T05:27:07.095Z,6.81
2023-01-13T05:32:08.991Z,6.79
2023-01-13T05:37:12.182Z,6.83
2023-01-13T05:42:32.175Z,6.78
2023-01-13T05:47:33.746Z,6.91
2023-01-13T05:52:35.168Z,6.79
2023-01-13T05:57:36.569Z,6.81
2023-01-13T06:02:38.176Z,6.86
2023-01-13T06:07:39.559Z,6.72
2023-01-13T06:12:41.332Z,6.86
2023-01-13T06:17:42.866Z,6.82
2023-01-13T06:22:47.809Z,6.79
2023-01-13T06:27:49.489Z,6.68
2023-01-13T06:32:55.393Z,6.64
2023-01-13T06:37:59.689Z,6.61
2023-01-13T06:43:17.042Z,6.56
2023-01-13T06:48:33.033Z,6.56
2023-01-13T06:53:34.609Z,6.70
2023-01-13T06:58:36.028Z,6.70
2023-01-13T07:03:37.496Z,6.71
2023-01-13T07:08:38.921Z,6.75
2023-01-13T07:14:00.632Z,6.72
2023-01-13T07:19:02.030Z,6.72
2023-01-13T07:24:03.665Z,6.76
2023-01-13T07:29:05.120Z,6.82
2023-01-13T07:34:07.400Z,6.72
2023-01-13T07:39:08.866Z,6.70
2023-01-13T07:44:10.822Z,6.80
2023-01-13T07:49:13.130Z,6.81
2023-01-13T07:54:14.580Z,6.93
2023-01-13T07:59:16.228Z,6.96
2023-01-13T08:04:17.764Z,6.97
2023-01-13T08:09:19.385Z,6.94
2023-01-13T08:14:21.290Z,6.86
2023-01-13T08:19:22.730Z,6.90
2023-01-13T08:24:24.430Z,6.89
2023-01-13T08:29:25.893Z,6.95
2023-01-13T08:34:27.354Z,6.97
2023-01-13T08:39:28.835Z,7.04
2023-01-13T08:44:32.061Z,7.05
2023-01-13T08:49:33.523Z,7.02
2023-01-13T08:54:39.104Z,7.03
2023-01-13T08:59:40.972Z,7.07
2023-01-13T09:04:42.772Z,7.07
2023-01-13T09:09:44.583Z,6.97
2023-01-13T09:14:46.052Z,6.99
2023-01-13T09:19:47.633Z,7.11
2023-01-13T09:24:49.290Z,7.24
2023-01-13T09:29:50.730Z,7.08
2023-01-13T09:35:01.252Z,6.96
2023-01-13T09:40:07.226Z,6.95
2023-01-13T09:45:26.020Z,6.87
2023-01-13T09:50:46.954Z,6.72
2023-01-13T09:55:48.724Z,6.67
2023-01-13T10:01:05.377Z,6.57
2023-01-13T10:06:38.832Z,6.50
2023-01-13T10:12:05.139Z,6.47
2023-01-13T10:17:18.781Z,6.48
2023-01-13T10:22:48.367Z,6.53
2023-01-13T10:27:52.713Z,6.56
2023-01-13T10:33:00.739Z,6.57
2023-01-13T10:38:02.190Z,6.61
2023-01-13T10:43:06.526Z,6.66
2023-01-13T10:48:15.424Z,6.67
2023-01-13T10:53:22.233Z,6.73
2023-01-13T10:58:24.805Z,6.77
2023-01-13T11:03:34.216Z,6.75
2023-01-13T11:08:45.854Z,6.61
2023-01-13T11:14:10.075Z,6.55
2023-01-13T11:19:17.096Z,6.62
2023-01-13T11:24:50.044Z,6.71
2023-01-13T11:30:03.004Z,6.84
2023-01-13T11:35:16.250Z,6.91
2023-01-13T11:40:29.017Z,6.96
2023-01-13T11:45:42.945Z,7.02
2023-01-13T11:51:00.513Z,7.01
2023-01-13T11:56:27.617Z,7.09
2023-01-13T12:01:49.142Z,7.09
2023-01-13T12:07:01.361Z,7.15
2023-01-13T12:12:34.845Z,7.21
2023-01-13T12:18:13.882Z,7.19
2023-01-13T12:23:37.194Z,7.10
2023-01-13T12:28:54.763Z,7.09
2023-01-13T12:34:18.060Z,7.08
2023-01-13T12:39:56.920Z,7.02
2023-01-13T12:45:11.680Z,6.88
2023-01-13T12:50:36.797Z,6.90
2023-01-13T12:55:38.300Z,6.96
2023-01-13T13:00:40.690Z,7.01
2023-01-13T13:06:03.357Z,7.07
2023-01-13T13:11:32.838Z,7.16
2023-01-13T13:16:47.745Z,7.30
2023-01-13T13:22:09.228Z,7.27
2023-01-13T13:27:27.917Z,7.38
2023-01-13T13:33:13.491Z,7.50
2023-01-13T13:38:51.993Z,7.50
2023-01-13T13:44:12.393Z,7.63
2023-01-13T13:49:21.125Z,7.57
2023-01-13T13:54:22.887Z,7.62
2023-01-13T13:59:32.887Z,7.69
2023-01-13T14:04:37.698Z,7.65
2023-01-13T14:09:45.758Z,7.68
2023-01-13T14:14:49.077Z,7.69
2023-01-13T14:19:53.224Z,7.71
2023-01-13T14:24:58.429Z,7.75
2023-01-13T14:30:01.630Z,7.73
2023-01-13T14:35:06.769Z,7.67
2023-01-13T14:40:36.531Z,7.74
2023-01-13T14:45:37.955Z,7.72
2023-01-13T14:50:39.532Z,7.79
2023-01-13T14:55:42.010Z,7.72
2023-01-13T15:00:43.482Z,7.79
2023-01-13T15:05:51.327Z,7.83
2023-01-13T15:10:59.888Z,7.76
2023-01-13T15:16:05.754Z,7.80
2023-01-13T15:21:09.523Z,7.76
2023-01-13T15:26:29.162Z,7.81
2023-01-13T15:31:30.683Z,7.74
2023-01-13T15:36:34.178Z,7.78
2023-01-13T15:41:53.894Z,7.74
2023-01-13T15:46:56.054Z,7.75
2023-01-13T15:51:57.482Z,7.63
2023-01-13T15:56:58.930Z,7.64
2023-01-13T16:02:00.332Z,7.64
2023-01-13T16:07:01.768Z,7.59
2023-01-13T16:12:03.301Z,7.62
2023-01-13T16:17:16.563Z,7.54
2023-01-13T16:22:18.775Z,7.60
2023-01-13T16:27:22.776Z,7.61
2023-01-13T16:32:24.239Z,7.61
2023-01-13T16:37:27.679Z,7.66
2023-01-13T16:42:29.165Z,7.66
2023-01-13T16:47:30.565Z,7.49
2023-01-13T16:52:32.013Z,7.46
2023-01-13T16:57:33.444Z,7.55
2023-01-13T17:02:34.867Z,7.49
2023-01-13T17:07:36.311Z,7.57
2023-01-13T17:12:37.751Z,7.64
2023-01-13T17:17:39.432Z,7.52
2023-01-13T17:22:42.478Z,7.56
2023-01-13T17:27:45.365Z,7.64
2023-01-13T17:32:46.967Z,7.57
2023-01-13T17:37:50.344Z,7.18
2023-01-13T17:42:51.776Z,6.17
2023-01-13T17:47:57.941Z,5.80
2023-01-13T17:52:59.382Z,5.82
2023-01-13T17:58:00.843Z,5.79
2023-01-13T18:03:02.356Z,5.27
2023-01-13T18:08:04.004Z,5.25
2023-01-13T18:13:06.447Z,5.22
2023-01-13T18:18:07.892Z,5.23
2023-01-13T18:23:46.409Z,5.41
2023-01-13T18:28:48.537Z,5.47
2023-01-13T18:33:50.003Z,5.62
2023-01-13T18:38:52.630Z,5.86
2023-01-13T18:43:54.043Z,5.91
2023-01-13T18:48:55.564Z,6.01
2023-01-13T18:53:57.214Z,6.14
2023-01-13T18:58:59.094Z,6.17
2023-01-13T19:04:05.489Z,6.10
2023-01-13T19:09:08.756Z,5.94
2023-01-13T19:14:10.167Z,5.80
2023-01-13T19:19:11.681Z,5.76
2023-01-13T19:24:14.348Z,5.82
2023-01-13T19:29:15.818Z,5.87
2023-01-13T19:34:17.452Z,5.77
2023-01-13T19:39:20.168Z,5.73
2023-01-13T19:44:40.315Z,5.83
2023-01-13T19:49:41.780Z,5.80
2023-01-13T19:54:47.098Z,5.66
2023-01-13T19:59:48.601Z,5.68
2023-01-13T20:04:56.093Z,5.89
2023-01-13T20:09:59.234Z,5.91
2023-01-13T20:15:01.082Z,5.97
2023-01-13T20:20:05.144Z,6.07
2023-01-13T20:25:08.596Z,6.14
2023-01-13T20:30:13.625Z,6.19
2023-01-13T20:35:15.492Z,6.10
2023-01-13T20:40:19.370Z,6.12
2023-01-13T20:45:26.861Z,5.99
2023-01-13T20:50:30.604Z,5.91
2023-01-13T20:55:33.280Z,6.01
2023-01-13T21:00:37.511Z,5.94
2023-01-13T21:05:39.112Z,5.97
2023-01-13T21:10:40.562Z,5.98
2023-01-13T21:15:48.309Z,6.07
2023-01-13T21:21:14.137Z,6.10
2023-01-13T21:26:16.890Z,6.13
2023-01-13T21:31:18.332Z,6.13
2023-01-13T21:36:20.097Z,6.21
2023-01-13T21:41:45.155Z,6.20
2023-01-13T21:47:06.503Z,6.19
2023-01-13T21:52:08.055Z,6.16
2023-01-13T21:57:09.449Z,6.18
2023-01-13T22:02:40.946Z,6.16
2023-01-13T22:07:43.991Z,6.23
2023-01-13T22:12:46.008Z,6.31
2023-01-13T22:17:51.413Z,6.33
2023-01-13T22:22:52.852Z,6.34
2023-01-13T22:28:03.469Z,6.52
2023-01-13T22:33:04.897Z,6.44
2023-01-13T22:38:07.322Z,6.47
2023-01-13T22:43:10.033Z,6.43
2023-01-13T22:48:12.333Z,6.51
2023-01-13T22:53:14.062Z,6.47
2023-01-13T22:58:18.822Z,6.48
2023-01-13T23:03:21.149Z,6.46
2023-01-13T23:08:25.511Z,6.50
2023-01-13T23:13:27.027Z,6.54
2023-01-13T23:18:32.092Z,6.48
2023-01-13T23:23:34.944Z,6.45
2023-01-13T23:28:38.444Z,6.40
2023-01-13T23:33:46.329Z,6.47
2023-01-13T23:38:47.870Z,6.43
2023-01-13T23:43:56.976Z,6.28
2023-01-13T23:48:58.569Z,6.26
2023-01-13T23:54:02.690Z,6.21
2023-01-13T23:59:04.143Z,6.08
